Time;durP1;ratioP1;P1;durP2;ratioP2;P2;SDS_P1;SDS_P2;PMS_P1;PMS_P2;Temp;Humidity;BMP_temperature;BMP_pressure;BME280_temperature;BME280_humidity;BME280_pressure;Samples;Min_cycle;Max_cycle;Signal;HPM_P1;HPM_P2
2023/10/03 00:01:43;;;;;;;23.48;14.52;;;;;;;19.25;67.54;95739.75;5033125;28;20833;-81
2023/10/03 00:04:10;;;;;;;21.45;13.60;;;;;;;19.27;67.58;95734.31;5040904;28;20197;-80
2023/10/03 00:06:38;;;;;;;22.35;13.95;;;;;;;19.23;67.70;95748.88;5054308;28;20308;-80
2023/10/03 00:09:06;;;;;;;22.05;15.00;;;;;;;19.16;68.02;95737.72;5049024;28;20190;-81
2023/10/03 00:11:33;;;;;;;19.92;14.05;;;;;;;19.14;67.76;95732.72;5034422;28;20277;-81
2023/10/03 00:14:00;;;;;;;19.70;13.60;;;;;;;19.07;67.73;95726.81;5034613;28;20217;-80
2023/10/03 00:16:28;;;;;;;21.15;14.18;;;;;;;19.08;67.69;95731.03;5030138;28;20217;-81
2023/10/03 00:18:55;;;;;;;22.02;13.40;;;;;;;19.04;67.56;95724.69;5029434;28;20198;-80
2023/10/03 00:21:21;;;;;;;20.27;13.65;;;;;;;18.97;67.71;95729.19;5034854;28;20229;-80
2023/10/03 00:23:48;;;;;;;22.60;14.05;;;;;;;18.93;68.08;95738.50;5034231;28;20202;-80
2023/10/03 00:26:17;;;;;;;20.60;13.90;;;;;;;18.87;67.97;95739.38;5034250;28;20409;-80
2023/10/03 00:28:44;;;;;;;18.67;12.65;;;;;;;18.87;67.69;95721.91;5034163;28;20281;-82
2023/10/03 00:31:13;;;;;;;20.02;12.60;;;;;;;18.85;67.73;95718.75;5033951;28;20203;-81
2023/10/03 00:33:42;;;;;;;20.08;13.48;;;;;;;18.83;67.76;95718.19;5031571;28;20264;-81
2023/10/03 00:36:16;;;;;;;19.60;13.25;;;;;;;18.85;67.89;95710.13;5033177;28;20233;-80
2023/10/03 00:38:43;;;;;;;20.17;13.05;;;;;;;18.85;67.21;95697.88;5033769;28;20259;-81
2023/10/03 00:41:09;;;;;;;20.90;13.40;;;;;;;18.88;66.97;95686.19;5033148;28;20226;-80
2023/10/03 00:43:36;;;;;;;16.67;11.77;;;;;;;18.95;66.07;95668.63;5022114;28;20210;-82
2023/10/03 00:46:03;;;;;;;19.50;12.77;;;;;;;18.95;66.19;95661.59;5014224;28;20210;-82
2023/10/03 00:48:31;;;;;;;17.13;11.82;;;;;;;18.97;65.75;95637.88;5034021;28;20218;-81
2023/10/03 00:51:00;;;;;;;20.80;13.15;;;;;;;18.92;65.37;95622.09;5033204;28;20224;-80
2023/10/03 00:53:26;;;;;;;17.95;11.55;;;;;;;18.93;64.95;95614.03;5033901;28;20214;-81
2023/10/03 00:55:58;;;;;;;17.98;12.13;;;;;;;19.00;64.82;95600.88;5033852;28;20293;-82
2023/10/03 00:58:28;;;;;;;17.75;11.43;;;;;;;19.03;64.34;95584.78;5034208;28;20293;-82
2023/10/03 01:00:57;;;;;;;17.50;11.38;;;;;;;19.07;64.50;95590.31;5034431;28;20228;-81
2023/10/03 01:03:30;;;;;;;20.77;12.20;;;;;;;19.07;64.49;95601.53;5033659;28;20276;-81
2023/10/03 01:06:04;;;;;;;16.80;11.10;;;;;;;19.09;64.22;95583.84;5019593;28;20202;-81
2023/10/03 01:08:31;;;;;;;17.65;11.95;;;;;;;19.05;63.95;95569.66;5032178;28;20206;-82
2023/10/03 01:10:59;;;;;;;20.00;12.43;;;;;;;19.07;64.06;95583.28;5032635;28;20679;-81
2023/10/03 01:13:26;;;;;;;21.02;12.57;;;;;;;19.04;63.90;95573.31;5026319;28;20263;-80
2023/10/03 01:15:52;;;;;;;16.17;11.30;;;;;;;19.04;64.07;95578.53;5019162;28;20206;-82
2023/10/03 01:18:20;;;;;;;17.38;11.25;;;;;;;18.99;64.11;95565.38;5030468;28;20737;-81
2023/10/03 01:20:48;;;;;;;18.67;12.00;;;;;;;19.05;64.02;95569.66;5033216;28;20248;-80
2023/10/03 01:23:17;;;;;;;17.38;11.80;;;;;;;19.05;63.98;95569.66;5030841;28;20214;-82
2023/10/03 01:25:43;;;;;;;17.92;11.90;;;;;;;19.08;63.81;95569.19;5033360;28;20206;-82
2023/10/03 01:28:10;;;;;;;16.52;11.23;;;;;;;19.08;63.32;95537.88;5033346;28;20225;-81
2023/10/03 01:30:37;;;;;;;17.58;11.38;;;;;;;19.05;64.22;95561.81;5033796;28;20240;-81
2023/10/03 01:33:06;;;;;;;16.17;11.27;;;;;;;19.04;63.20;95543.81;5033829;28;20229;-82
2023/10/03 01:35:32;;;;;;;16.65;11.63;;;;;;;19.03;63.28;95535.19;5033752;28;20202;-81
2023/10/03 01:37:59;;;;;;;19.90;11.98;;;;;;;19.03;63.60;95542.22;5032164;28;20221;-82
2023/10/03 01:40:27;;;;;;;18.83;11.98;;;;;;;18.92;63.64;95549.84;5034496;28;20209;-81
2023/10/03 01:42:54;;;;;;;19.92;11.90;;;;;;;18.92;64.16;95556.88;5028942;28;20286;-83
2023/10/03 01:45:22;;;;;;;14.75;10.60;;;;;;;18.93;63.61;95538.38;5014502;28;20214;-80
2023/10/03 01:47:50;;;;;;;16.58;10.93;;;;;;;18.97;63.14;95521.25;5031839;28;20218;-81
2023/10/03 01:50:18;;;;;;;20.80;11.68;;;;;;;18.89;62.53;95490.28;5032624;28;20244;-80
2023/10/03 01:52:46;;;;;;;18.17;12.07;;;;;;;18.92;63.12;95505.47;5032258;28;20768;-81
2023/10/03 01:55:13;;;;;;;22.75;12.18;;;;;;;18.96;63.07;95504.00;5031109;28;20268;-80
2023/10/03 01:57:41;;;;;;;16.02;11.00;;;;;;;18.97;62.82;95489.94;5033147;28;20292;-80
2023/10/03 02:00:20;;;;;;;18.88;11.50;;;;;;;18.98;62.84;95491.50;5033715;28;20202;-80
2023/10/03 02:02:47;;;;;;;18.30;12.05;;;;;;;18.96;62.84;95490.16;5033280;28;20209;-81
2023/10/03 02:05:14;;;;;;;18.73;12.32;;;;;;;18.91;62.82;95480.41;5034489;28;20241;-82
2023/10/03 02:07:41;;;;;;;17.00;11.20;;;;;;;18.90;62.56;95476.22;5034626;28;20222;-81
2023/10/03 02:10:12;;;;;;;15.25;10.98;;;;;;;18.94;62.29;95460.88;5036468;28;20194;-82
2023/10/03 02:12:39;;;;;;;16.73;11.07;;;;;;;18.95;62.21;95458.06;5034761;28;20410;-81
2023/10/03 02:15:09;;;;;;;16.50;11.25;;;;;;;18.92;62.14;95450.69;5028945;28;20199;-81
2023/10/03 02:17:36;;;;;;;15.60;10.25;;;;;;;18.91;61.92;95438.66;5015380;28;20253;-81
2023/10/03 02:20:08;;;;;;;17.20;10.98;;;;;;;18.93;61.89;95441.03;5019316;28;20202;-80
2023/10/03 02:22:35;;;;;;;16.52;11.38;;;;;;;18.92;62.33;95457.72;5025304;28;20225;-81
2023/10/03 02:25:03;;;;;;;17.95;10.85;;;;;;;18.94;62.44;95460.88;5038287;28;20217;-81
2023/10/03 02:27:29;;;;;;;17.70;11.10;;;;;;;18.93;62.37;95456.69;5034386;28;20241;-82
2023/10/03 02:29:58;;;;;;;17.63;10.80;;;;;;;18.90;62.27;95447.50;5038104;28;20209;-80
2023/10/03 02:32:26;;;;;;;16.00;11.35;;;;;;;18.86;62.18;95435.94;5037573;28;20194;-81
2023/10/03 02:34:54;;;;;;;16.13;10.95;;;;;;;18.86;61.61;95427.31;5037407;28;20198;-80
2023/10/03 02:37:20;;;;;;;17.48;10.60;;;;;;;18.92;61.67;95415.97;5036457;28;20276;-82
2023/10/03 02:39:46;;;;;;;15.85;11.13;;;;;;;18.92;61.59;95403.72;5036546;28;20213;-80
2023/10/03 02:42:13;;;;;;;18.00;11.40;;;;;;;18.95;61.35;95394.63;5034778;28;20225;-81
2023/10/03 02:44:40;;;;;;;16.40;10.55;;;;;;;18.92;60.92;95379.44;5036719;28;20202;-81
2023/10/03 02:47:06;;;;;;;18.02;11.23;;;;;;;18.97;60.93;95369.91;5036052;28;20714;-81
2023/10/03 02:49:34;;;;;;;15.85;10.68;;;;;;;19.01;61.11;95382.47;5051733;28;20201;-82
2023/10/03 02:52:01;;;;;;;16.17;10.38;;;;;;;19.00;60.97;95373.84;5055474;28;20236;-82
2023/10/03 02:54:27;;;;;;;14.80;9.82;;;;;;;18.96;60.69;95347.44;5036893;28;20204;-81
2023/10/03 02:56:54;;;;;;;17.13;11.18;;;;;;;18.98;60.70;95353.22;5036722;28;20214;-81
2023/10/03 02:59:21;;;;;;;16.95;11.07;;;;;;;18.94;60.69;95348.69;5036060;28;20206;-79
2023/10/03 03:01:52;;;;;;;14.65;10.20;;;;;;;18.95;60.37;95343.25;5036462;28;20276;-79
2023/10/03 03:04:20;;;;;;;16.33;10.75;;;;;;;18.94;60.29;95330.44;5036416;28;20198;-80
2023/10/03 03:06:51;;;;;;;18.17;10.40;;;;;;;18.95;60.25;95324.97;5026767;28;20229;-80
2023/10/03 03:09:23;;;;;;;17.83;10.55;;;;;;;18.95;60.06;95311.13;5035123;28;20265;-79
2023/10/03 03:11:50;;;;;;;15.93;10.15;;;;;;;18.93;59.93;95302.75;5035098;28;20202;-79
2023/10/03 03:14:17;;;;;;;19.13;11.27;;;;;;;18.92;60.04;95307.19;5032981;28;20203;-80
2023/10/03 03:16:47;;;;;;;14.85;10.50;;;;;;;18.97;60.08;95303.88;5034852;28;20725;-81
2023/10/03 03:19:14;;;;;;;16.40;9.93;;;;;;;18.93;59.57;95292.31;5034923;28;20256;-80
2023/10/03 03:21:43;;;;;;;15.50;10.23;;;;;;;18.91;59.81;95300.38;5034828;28;20590;-80
2023/10/03 03:24:15;;;;;;;17.17;10.50;;;;;;;18.95;59.58;95298.88;5034166;28;20213;-80
2023/10/03 03:26:47;;;;;;;15.90;10.50;;;;;;;18.98;59.46;95292.41;5034903;28;20229;-80
2023/10/03 03:29:20;;;;;;;17.90;10.00;;;;;;;18.97;59.41;95286.41;5034776;28;20703;-81
2023/10/03 03:31:48;;;;;;;17.45;10.60;;;;;;;18.95;59.18;95275.41;5027077;28;20578;-81
2023/10/03 03:34:15;;;;;;;16.13;10.13;;;;;;;18.94;58.71;95260.00;5023741;28;20249;-82
2023/10/03 03:36:41;;;;;;;15.25;10.07;;;;;;;18.98;59.05;95269.72;5024401;28;20229;-80
2023/10/03 03:39:15;;;;;;;14.43;9.93;;;;;;;18.96;58.94;95258.72;5025647;28;20689;-82
2023/10/03 03:41:43;;;;;;;18.10;10.48;;;;;;;18.96;58.91;95269.16;5025364;28;20237;-83
2023/10/03 03:44:11;;;;;;;15.73;9.82;;;;;;;18.95;58.74;95259.75;5024990;28;20285;-82
2023/10/03 03:46:40;;;;;;;15.25;9.80;;;;;;;18.98;58.72;95256.66;5023027;28;20305;-83
2023/10/03 03:49:06;;;;;;;14.20;9.70;;;;;;;18.94;58.61;95257.38;5027744;28;20199;-81
2023/10/03 03:51:32;;;;;;;15.02;9.90;;;;;;;18.93;58.84;95256.59;5022845;28;20199;-82
2023/10/03 03:54:00;;;;;;;16.40;10.52;;;;;;;18.94;58.63;95255.56;5029141;28;20194;-81
2023/10/03 03:56:26;;;;;;;17.10;10.55;;;;;;;18.96;58.71;95255.31;5034233;28;20214;-82
2023/10/03 03:58:54;;;;;;;13.60;9.15;;;;;;;18.94;58.71;95252.16;5034567;28;20213;-83
2023/10/03 04:01:21;;;;;;;15.05;9.90;;;;;;;18.97;58.69;95249.88;5028552;28;20203;-82
2023/10/03 04:03:54;;;;;;;17.40;10.23;;;;;;;18.96;58.66;95250.91;5033869;28;20209;-81
2023/10/03 04:06:21;;;;;;;15.52;10.20;;;;;;;18.97;58.62;95249.88;5034028;28;20253;-83
2023/10/03 04:08:48;;;;;;;18.85;10.88;;;;;;;18.97;58.63;95241.25;5032976;28;20206;-82
2023/10/03 04:11:14;;;;;;;16.92;9.77;;;;;;;18.89;58.43;95239.81;5033928;28;20202;-81
2023/10/03 04:13:49;;;;;;;15.10;9.77;;;;;;;18.90;58.61;95238.78;5034075;28;20926;-83
2023/10/03 04:16:19;;;;;;;15.65;9.57;;;;;;;18.89;58.72;95247.63;5021076;28;20210;-82
2023/10/03 04:18:49;;;;;;;14.35;9.60;;;;;;;18.87;58.63;95235.84;5033175;28;20214;-82
2023/10/03 04:21:15;;;;;;;15.30;10.65;;;;;;;18.85;58.65;95243.16;5029016;28;20209;-82
2023/10/03 04:23:43;;;;;;;14.70;9.27;;;;;;;18.80;58.75;95241.25;5034005;28;20224;-82
2023/10/03 04:26:10;;;;;;;15.68;9.98;;;;;;;18.79;58.65;95247.50;5033937;28;20234;-82
2023/10/03 04:28:38;;;;;;;16.63;9.75;;;;;;;18.77;58.67;95240.91;5033800;28;20667;-82
2023/10/03 04:31:04;;;;;;;14.77;9.73;;;;;;;18.77;58.76;95244.31;5034078;28;20690;-83
2023/10/03 04:33:32;;;;;;;15.15;9.85;;;;;;;18.75;59.01;95246.38;5033141;28;20571;-83
2023/10/03 04:36:04;;;;;;;17.05;10.90;;;;;;;18.76;58.82;95247.16;5030499;28;20667;-84
2023/10/03 04:38:31;;;;;;;16.50;10.05;;;;;;;18.75;59.05;95259.41;5033988;28;20292;-81
2023/10/03 04:40:58;;;;;;;15.00;9.90;;;;;;;18.76;58.96;95252.38;5032929;28;20206;-81
2023/10/03 04:43:27;;;;;;;15.50;9.82;;;;;;;18.74;59.05;95251.81;5023466;28;20245;-82
2023/10/03 04:45:53;;;;;;;16.02;10.05;;;;;;;18.71;58.74;95244.47;5014105;28;20211;-82
2023/10/03 04:48:20;;;;;;;14.98;9.70;;;;;;;18.65;58.69;95245.41;5013751;28;20230;-82
2023/10/03 04:50:48;;;;;;;17.67;10.43;;;;;;;18.61;58.98;95263.34;5022388;28;20202;-81
2023/10/03 04:53:15;;;;;;;14.00;8.80;;;;;;;18.59;58.81;95247.94;5031788;28;20586;-83
2023/10/03 04:55:45;;;;;;;15.88;10.02;;;;;;;18.63;58.90;95245.66;5034585;28;20832;-82
2023/10/03 04:58:12;;;;;;;15.55;10.18;;;;;;;18.65;59.01;95241.00;5020342;28;20210;-82
2023/10/03 05:00:39;;;;;;;15.05;9.40;;;;;;;18.62;58.68;95226.59;5017709;28;20238;-82
2023/10/03 05:03:09;;;;;;;15.57;9.25;;;;;;;18.60;58.26;95222.66;5025517;28;20221;-82
2023/10/03 05:05:36;;;;;;;14.85;9.02;;;;;;;18.59;58.56;95226.28;5037738;28;20229;-82
2023/10/03 05:08:05;;;;;;;16.70;9.55;;;;;;;18.61;58.43;95232.06;5032912;28;20221;-81
2023/10/03 05:10:33;;;;;;;15.23;9.50;;;;;;;18.65;58.45;95221.94;5033994;28;20209;-83
2023/10/03 05:13:00;;;;;;;13.55;8.90;;;;;;;18.65;58.16;95217.53;5033659;28;20198;-82
2023/10/03 05:15:27;;;;;;;13.25;9.27;;;;;;;18.67;58.27;95225.09;5024673;28;20457;-82
2023/10/03 05:17:55;;;;;;;16.20;9.95;;;;;;;18.72;58.59;95225.19;5028891;28;20275;-82
2023/10/03 05:20:34;;;;;;;15.18;9.35;;;;;;;18.68;58.06;95209.22;5034558;28;20259;-82
2023/10/03 05:23:02;;;;;;;16.77;9.82;;;;;;;18.63;58.14;95222.97;5033799;28;20240;-83
2023/10/03 05:25:29;;;;;;;14.93;9.18;;;;;;;18.62;58.48;95223.22;5020959;28;20203;-81
2023/10/03 05:27:56;;;;;;;15.02;9.55;;;;;;;18.64;58.23;95228.97;5033160;28;20218;-82
2023/10/03 05:30:25;;;;;;;14.73;9.25;;;;;;;18.61;58.10;95216.41;5033291;28;20209;-83
2023/10/03 05:32:51;;;;;;;13.25;8.70;;;;;;;18.64;58.17;95228.97;5033133;28;20187;-82
2023/10/03 05:35:18;;;;;;;14.10;9.07;;;;;;;18.64;58.22;95228.97;5033249;28;20202;-81
2023/10/03 05:37:44;;;;;;;14.18;9.10;;;;;;;18.69;58.17;95242.09;5033132;28;20234;-82
2023/10/03 05:40:18;;;;;;;14.65;9.15;;;;;;;18.71;58.06;95234.81;5031556;28;20202;-83
2023/10/03 05:42:48;;;;;;;14.75;9.57;;;;;;;18.70;58.12;95248.09;5015353;28;20389;-82
2023/10/03 05:45:15;;;;;;;15.98;9.45;;;;;;;18.71;58.17;95247.06;5013254;28;20632;-83
2023/10/03 05:47:44;;;;;;;13.52;9.07;;;;;;;18.69;58.44;95241.28;5012587;28;20227;-82
2023/10/03 05:50:10;;;;;;;14.32;9.90;;;;;;;18.72;58.18;95238.22;5011967;28;20297;-83
2023/10/03 05:52:37;;;;;;;14.07;9.48;;;;;;;18.64;59.22;95275.91;5030579;28;20198;-82
2023/10/03 05:55:04;;;;;;;15.55;9.55;;;;;;;18.65;58.53;95259.25;5024344;28;20731;-84
2023/10/03 05:57:31;;;;;;;13.98;9.02;;;;;;;18.68;58.46;95253.53;5031401;28;20359;-82
2023/10/03 05:59:58;;;;;;;15.18;9.02;;;;;;;18.68;58.36;95242.31;5032844;28;20687;-81
2023/10/03 06:02:25;;;;;;;14.10;9.35;;;;;;;18.72;58.24;95238.22;5032010;28;20218;-83
2023/10/03 06:04:52;;;;;;;13.32;9.18;;;;;;;18.72;57.91;95228.59;5032812;28;20202;-83
2023/10/03 06:07:18;;;;;;;16.00;9.52;;;;;;;18.78;58.17;95238.06;5032480;28;20657;-82
2023/10/03 06:09:45;;;;;;;14.07;9.60;;;;;;;18.87;58.26;95248.91;5032850;28;20205;-82
2023/10/03 06:12:11;;;;;;;15.27;9.82;;;;;;;18.96;57.80;95229.22;5030303;28;20196;-82
2023/10/03 06:14:40;;;;;;;14.73;9.52;;;;;;;19.12;57.29;95207.56;5025209;28;20222;-81
2023/10/03 06:17:08;;;;;;;13.45;8.88;;;;;;;19.33;56.50;95170.28;5013473;28;20258;-82
2023/10/03 06:19:35;;;;;;;15.50;9.63;;;;;;;19.63;55.92;95138.53;5012986;28;20211;-82
2023/10/03 06:22:01;;;;;;;14.82;9.27;;;;;;;19.91;55.67;95145.41;5022027;28;20202;-82
2023/10/03 06:24:28;;;;;;;14.63;9.55;;;;;;;20.08;54.58;95079.97;5031866;28;20199;-82
2023/10/03 06:26:55;;;;;;;14.00;8.93;;;;;;;20.22;54.34;95068.06;5031932;28;20250;-83
2023/10/03 06:29:23;;;;;;;16.08;8.60;;;;;;;20.34;53.65;95032.09;5030885;28;20209;-83
2023/10/03 06:31:51;;;;;;;14.57;9.27;;;;;;;20.56;53.56;95031.22;5032059;28;20212;-83
2023/10/03 06:34:19;;;;;;;13.55;9.15;;;;;;;20.74;52.73;95009.09;5032229;28;20264;-82
2023/10/03 06:36:46;;;;;;;12.98;9.05;;;;;;;20.92;52.76;95006.03;5031972;28;20229;-83
2023/10/03 06:39:13;;;;;;;13.82;8.75;;;;;;;21.18;52.22;94984.13;5032951;28;20221;-82
2023/10/03 06:41:39;;;;;;;12.93;8.95;;;;;;;21.42;52.04;94978.47;5031683;28;20195;-83
2023/10/03 06:44:05;;;;;;;12.75;8.82;;;;;;;21.68;51.40;94957.31;5016540;28;20838;-81
2023/10/03 06:46:32;;;;;;;13.13;9.30;;;;;;;21.85;50.49;94919.56;5031208;28;20225;-83
2023/10/03 06:48:58;;;;;;;14.45;8.80;;;;;;;22.04;50.84;94931.09;5032672;28;20198;-82
2023/10/03 06:51:26;;;;;;;11.48;8.35;;;;;;;22.05;50.43;94915.13;5023871;28;20587;-83
2023/10/03 06:53:52;;;;;;;14.63;8.73;;;;;;;21.94;50.73;94910.88;5032841;28;20204;-83
2023/10/03 06:56:19;;;;;;;13.07;8.70;;;;;;;21.84;51.05;94939.75;5032199;28;20202;-83
2023/10/03 06:58:47;;;;;;;13.43;8.35;;;;;;;22.16;50.58;94934.22;5032206;28;20260;-82
2023/10/03 07:01:13;;;;;;;12.80;8.98;;;;;;;22.37;50.36;94906.91;5030371;28;20199;-83
2023/10/03 07:03:40;;;;;;;11.65;8.55;;;;;;;22.71;49.49;94872.16;5035840;28;20226;-83
2023/10/03 07:06:07;;;;;;;14.43;9.18;;;;;;;23.04;49.49;94879.38;5040456;28;20210;-83
2023/10/03 07:08:35;;;;;;;12.88;8.25;;;;;;;23.25;48.21;94816.22;5037096;28;20213;-83
2023/10/03 07:11:02;;;;;;;11.18;7.80;;;;;;;23.51;47.39;94780.78;5037346;28;20257;-82
2023/10/03 07:13:29;;;;;;;14.43;9.13;;;;;;;23.75;47.42;94796.63;5037176;28;20202;-83
2023/10/03 07:15:57;;;;;;;11.88;8.55;;;;;;;24.01;47.41;94762.97;5023371;28;20211;-82
2023/10/03 07:18:23;;;;;;;12.07;8.50;;;;;;;24.09;46.25;94725.50;5025535;28;20595;-81
2023/10/03 07:20:50;;;;;;;12.02;7.85;;;;;;;24.25;45.88;94689.28;5024375;28;20655;-83
2023/10/03 07:23:18;;;;;;;10.88;7.85;;;;;;;24.44;45.44;94663.75;5036960;28;20218;-84
2023/10/03 07:25:45;;;;;;;10.70;7.97;;;;;;;24.67;44.99;94654.97;5035895;28;20202;-83
2023/10/03 07:28:12;;;;;;;11.77;8.52;;;;;;;24.86;44.68;94669.97;5049625;28;20741;-84
2023/10/03 07:30:38;;;;;;;12.98;8.35;;;;;;;24.94;44.37;94641.16;5057274;28;20292;-83
2023/10/03 07:33:06;;;;;;;11.77;8.25;;;;;;;25.07;44.04;94639.59;5042827;28;20194;-84
2023/10/03 07:35:35;;;;;;;10.10;8.00;;;;;;;25.10;43.87;94624.00;5036240;28;20224;-83
2023/10/03 07:38:02;;;;;;;12.73;8.55;;;;;;;25.33;43.56;94632.03;5035772;28;20645;-82
2023/10/03 07:40:28;;;;;;;10.82;7.82;;;;;;;25.56;43.33;94630.28;5035267;28;20198;-84
2023/10/03 07:42:56;;;;;;;10.80;7.80;;;;;;;25.71;42.86;94601.78;5030225;28;20214;-84
2023/10/03 07:45:22;;;;;;;11.52;8.07;;;;;;;25.79;42.91;94608.97;5034869;28;20206;-84
2023/10/03 07:47:50;;;;;;;11.57;8.52;;;;;;;25.79;42.15;94566.00;5026594;28;20214;-84
2023/10/03 07:50:18;;;;;;;11.75;8.57;;;;;;;26.01;42.45;94570.53;5031946;28;20578;-83
2023/10/03 07:52:48;;;;;;;10.27;7.70;;;;;;;25.91;41.45;94544.41;5035960;28;20665;-84
2023/10/03 07:55:15;;;;;;;10.73;7.70;;;;;;;25.96;41.66;94555.63;5035550;28;20236;-83
2023/10/03 07:57:42;;;;;;;9.82;7.65;;;;;;;26.17;41.93;94571.75;5035922;28;20280;-83
2023/10/03 08:00:20;;;;;;;9.52;7.63;;;;;;;26.41;41.92;94558.31;5035036;28;20199;-84
2023/10/03 08:02:49;;;;;;;10.88;8.13;;;;;;;26.63;41.60;94563.56;5034163;28;20386;-82
2023/10/03 08:05:16;;;;;;;9.98;7.63;;;;;;;26.76;41.26;94554.00;5034015;28;20210;-82
2023/10/03 08:07:47;;;;;;;10.27;8.05;;;;;;;26.81;41.30;94538.81;5034563;28;20226;-82
2023/10/03 08:10:15;;;;;;;10.43;7.70;;;;;;;26.88;41.25;94542.88;5035900;28;20279;-82
2023/10/03 08:12:41;;;;;;;11.57;7.80;;;;;;;27.01;41.00;94552.59;5035811;28;20190;-83
2023/10/03 08:15:17;;;;;;;9.73;7.85;;;;;;;27.20;41.34;94547.06;5034165;28;20195;-83
2023/10/03 08:17:48;;;;;;;10.20;8.32;;;;;;;27.37;40.77;94558.47;5035618;28;20237;-83
2023/10/03 08:20:15;;;;;;;11.50;8.20;;;;;;;27.57;40.77;94545.75;5035161;28;20205;-80
2023/10/03 08:22:42;;;;;;;10.88;7.63;;;;;;;27.74;40.47;94543.94;5034388;28;20194;-81
2023/10/03 08:25:09;;;;;;;10.05;7.85;;;;;;;27.82;40.42;94550.34;5035519;28;20256;-80
2023/10/03 08:27:36;;;;;;;10.25;7.10;;;;;;;27.68;40.21;94520.63;5035488;28;20230;-83
2023/10/03 08:30:03;;;;;;;11.65;7.43;;;;;;;27.77;40.83;94548.63;5034808;28;20205;-83
2023/10/03 08:32:31;;;;;;;10.25;7.28;;;;;;;27.88;40.39;94517.34;5035481;28;20843;-84
2023/10/03 08:34:58;;;;;;;11.18;7.45;;;;;;;27.96;39.75;94513.13;5035571;28;20229;-82
2023/10/03 08:37:25;;;;;;;10.00;7.03;;;;;;;28.05;39.32;94496.19;5032597;28;20224;-83
2023/10/03 08:39:52;;;;;;;8.77;6.53;;;;;;;28.25;39.61;94481.53;5025698;28;20206;-84
2023/10/03 08:42:34;;;;;;;10.80;7.63;;;;;;;28.47;39.14;94468.09;5030225;28;20860;-83
2023/10/03 08:45:16;;;;;;;11.00;7.10;;;;;;;28.58;38.88;94457.94;5022874;28;20218;-84
2023/10/03 08:47:48;;;;;;;7.70;6.65;;;;;;;28.61;38.73;94441.41;5020498;28;20289;-82
2023/10/03 08:50:33;;;;;;;8.90;7.20;;;;;;;28.66;38.38;94435.94;5035970;28;20236;-84
2023/10/03 08:53:12;;;;;;;9.27;6.72;;;;;;;28.68;37.90;94422.34;5034415;28;20198;-83
2023/10/03 08:55:43;;;;;;;9.07;6.90;;;;;;;28.78;38.09;94419.34;5034724;28;20245;-83
2023/10/03 08:58:13;;;;;;;7.88;6.40;;;;;;;28.92;38.56;94437.69;5035115;28;20225;-83
2023/10/03 09:00:42;;;;;;;7.93;6.25;;;;;;;29.04;38.54;94438.59;5034969;28;20213;-83
2023/10/03 09:03:12;;;;;;;8.13;6.15;;;;;;;28.99;38.26;94435.31;5034744;28;20686;-83
2023/10/03 09:05:41;;;;;;;8.05;6.05;;;;;;;29.01;37.12;94375.59;5053013;28;20224;-83
2023/10/03 09:08:08;;;;;;;7.97;6.43;;;;;;;29.04;37.18;94359.06;5053979;28;20761;-83
2023/10/03 09:10:42;;;;;;;7.57;5.82;;;;;;;29.05;36.79;94365.91;5041227;28;20259;-84
2023/10/03 09:13:16;;;;;;;8.88;6.00;;;;;;;29.04;36.86;94366.25;5034240;28;20426;-84
2023/10/03 09:15:43;;;;;;;7.75;5.85;;;;;;;28.88;36.23;94318.31;5022725;28;20285;-84
2023/10/03 09:18:10;;;;;;;7.05;5.80;;;;;;;28.74;36.69;94313.22;5015530;28;20727;-83
2023/10/03 09:20:37;;;;;;;8.63;5.88;;;;;;;28.78;36.40;94324.75;5026431;28;20290;-84
2023/10/03 09:23:06;;;;;;;8.27;5.63;;;;;;;28.75;36.80;94340.50;5034959;28;20222;-83
2023/10/03 09:25:33;;;;;;;7.97;5.63;;;;;;;28.76;37.37;94336.75;5032697;28;20679;-83
2023/10/03 09:28:04;;;;;;;8.40;6.07;;;;;;;28.58;36.92;94301.66;5031131;28;20292;-84
2023/10/03 09:30:37;;;;;;;6.35;5.47;;;;;;;28.37;37.00;94298.97;5035309;28;20194;-83
2023/10/03 09:33:05;;;;;;;6.28;5.40;;;;;;;28.40;37.67;94346.00;5034308;28;20290;-83
2023/10/03 09:35:33;;;;;;;9.45;5.65;;;;;;;28.42;37.71;94378.22;5032504;28;20198;-82
2023/10/03 09:38:05;;;;;;;6.60;5.50;;;;;;;28.51;37.67;94383.47;5023356;28;20214;-83
2023/10/03 09:40:49;;;;;;;7.57;5.45;;;;;;;28.63;37.06;94353.66;5025205;28;20232;-84
2023/10/03 09:43:19;;;;;;;7.03;5.35;;;;;;;28.64;36.93;94318.91;5030102;28;20711;-84
2023/10/03 09:45:47;;;;;;;6.70;5.00;;;;;;;28.62;36.94;94310.50;5034061;28;20437;-84
2023/10/03 09:48:15;;;;;;;6.90;4.97;;;;;;;28.46;36.62;94286.47;5035181;28;20254;-83
2023/10/03 09:50:51;;;;;;;7.13;5.05;;;;;;;28.48;37.18;94310.72;5035893;28;20206;-83
2023/10/03 09:53:19;;;;;;;5.47;4.80;;;;;;;28.59;37.21;94342.16;5032777;28;20720;-82
2023/10/03 09:55:49;;;;;;;10.18;5.28;;;;;;;28.72;37.46;94371.06;5034008;28;20221;-85
2023/10/03 09:58:24;;;;;;;8.40;5.68;;;;;;;28.58;36.84;94303.53;5032826;28;20230;-83
2023/10/03 10:00:51;;;;;;;6.85;5.20;;;;;;;28.56;36.12;94253.53;5033712;28;20198;-83
2023/10/03 10:03:26;;;;;;;6.65;5.63;;;;;;;28.47;36.28;94263.41;5033503;28;20887;-83
2023/10/03 10:06:04;;;;;;;6.65;4.90;;;;;;;28.50;36.16;94263.53;5013424;28;20304;-82
2023/10/03 10:08:37;;;;;;;5.97;5.03;;;;;;;28.47;36.24;94266.06;5022783;28;20642;-83
2023/10/03 10:11:09;;;;;;;6.30;4.72;;;;;;;28.40;36.22;94255.97;5033096;28;20226;-83
2023/10/03 10:13:37;;;;;;;11.38;5.35;;;;;;;28.33;36.58;94289.31;5033299;28;20194;-83
2023/10/03 10:16:07;;;;;;;5.15;4.45;;;;;;;28.32;36.44;94301.00;5016737;28;20229;-84
2023/10/03 10:19:03;;;;;;;7.10;4.55;;;;;;;28.31;36.59;94281.69;5014228;28;20214;-84
2023/10/03 10:21:32;;;;;;;5.97;4.75;;;;;;;28.35;36.26;94274.69;5028972;28;20747;-83
2023/10/03 10:24:28;;;;;;;8.88;4.78;;;;;;;28.34;36.26;94282.94;5033016;28;20718;-82
2023/10/03 10:26:59;;;;;;;8.63;7.78;;;;;;;28.37;36.34;94279.66;5033970;28;20286;-83
2023/10/03 10:29:28;;;;;;;6.97;5.18;;;;;;;28.15;35.90;94244.38;5035923;28;20266;-82
2023/10/03 10:31:58;;;;;;;6.00;5.00;;;;;;;28.03;36.86;94277.94;5028120;28;20202;-83
2023/10/03 10:34:35;;;;;;;6.25;5.03;;;;;;;27.87;36.35;94255.75;5027324;28;20288;-84
2023/10/03 10:37:03;;;;;;;7.35;4.70;;;;;;;27.74;37.06;94270.69;5028464;28;20220;-85
2023/10/03 10:40:21;;;;;;;6.10;4.82;;;;;;;27.70;37.31;94304.97;5039578;28;20206;-84
2023/10/03 10:43:00;;;;;;;6.00;4.30;;;;;;;27.41;37.26;94291.59;5023159;28;20206;-83
2023/10/03 10:45:27;;;;;;;6.95;5.13;;;;;;;27.38;38.30;94334.53;5031050;28;20733;-82
2023/10/03 10:47:55;;;;;;;5.85;4.75;;;;;;;27.31;38.38;94353.53;5035852;28;20229;-81
2023/10/03 10:50:25;;;;;;;6.00;4.82;;;;;;;27.22;37.87;94336.88;5037435;28;20214;-83
2023/10/03 10:52:53;;;;;;;6.82;5.70;;;;;;;27.12;38.32;94366.25;5037239;28;20252;-82
2023/10/03 10:55:21;;;;;;;11.68;10.43;;;;;;;27.08;39.29;94389.88;5036325;28;20706;-83
2023/10/03 10:57:48;;;;;;;6.57;5.28;;;;;;;26.88;39.17;94387.03;5036062;28;20218;-84
2023/10/03 11:00:22;;;;;;;5.40;4.45;;;;;;;26.70;39.48;94396.78;5036110;28;20209;-83
2023/10/03 11:02:49;;;;;;;9.02;4.88;;;;;;;26.55;39.30;94403.25;5035236;28;20403;-84
2023/10/03 11:05:15;;;;;;;7.88;4.88;;;;;;;26.46;39.51;94386.59;5044188;28;20229;-83
2023/10/03 11:07:49;;;;;;;8.27;4.55;;;;;;;26.40;39.18;94411.56;5036963;28;20225;-84
2023/10/03 11:10:17;;;;;;;4.93;4.43;;;;;;;26.43;39.30;94393.25;5036157;28;20190;-83
2023/10/03 11:12:44;;;;;;;5.60;4.60;;;;;;;26.52;39.05;94374.03;5037004;28;20201;-82
2023/10/03 11:15:14;;;;;;;5.70;4.45;;;;;;;26.72;39.00;94390.09;5027938;28;20199;-83
2023/10/03 11:17:49;;;;;;;8.55;4.28;;;;;;;27.02;38.08;94340.13;5034071;28;20282;-84
2023/10/03 11:20:16;;;;;;;5.63;4.32;;;;;;;27.23;37.79;94314.63;5036147;28;20201;-84
2023/10/03 11:22:43;;;;;;;4.88;4.13;;;;;;;27.38;38.02;94334.53;5037273;28;20771;-82
2023/10/03 11:25:11;;;;;;;6.45;4.35;;;;;;;27.43;37.50;94271.69;5037241;28;20229;-82
2023/10/03 11:27:37;;;;;;;5.63;4.20;;;;;;;27.43;36.92;94257.72;5036649;28;20599;-82
2023/10/03 11:30:14;;;;;;;4.68;4.03;;;;;;;27.51;37.07;94255.06;5036292;28;20202;-83
2023/10/03 11:32:42;;;;;;;4.90;4.38;;;;;;;27.65;36.95;94252.22;5024657;28;20207;-83